METAR Data
IDs: Format: Raw Decoded Include TAF

Data at: 1749 UTC 25 Mar 2019

KCNW 251655Z 03011G17KT 10SM SKC 22/10 A3020
KCNW 251555Z 01008KT 10SM SKC 20/11 A3018
KCNW 251455Z 02008KT 10SM SCT048 18/11 A3016
KCNW 251355Z 02008KT 10SM BKN018 17/12 A3013
KCNW 251255Z 01012G20KT 10SM OVC018 17/11 A3011
KCNW 251155Z 36007KT 10SM OVC010 18/16 A3007
KCNW 250355Z 17008KT 10SM SKC 19/16 A3001
KCNW 250255Z 16004KT 10SM SKC 20/17 A3000
KCNW 250155Z 15005KT 10SM SKC 20/16 A2997
KCNW 250055Z 17006KT 10SM SKC 23/17 A2997
KCNW 242355Z 16010KT 10SM SCT043 25/17 A2997
KCNW 242255Z 18011KT 10SM SCT038 26/17 A2997
KCNW 242155Z 19008G16KT 10SM SCT034 27/17 A3000
KCNW 242055Z 21015G18KT 10SM BKN039 25/17 A3002
KCNW 241955Z 19010KT 10SM OVC033 23/17 A3004
KCNW 241855Z 20013G20KT 10SM OVC029 23/17 A3005
KCNW 241755Z 20013KT 10SM OVC023 23/17 A3007
KCNW 241655Z 19013KT 10SM OVC024 22/17 A3008
KCNW 241555Z 19013G20KT 10SM OVC016 22/17 A3009
KCNW 241455Z 18011KT 10SM OVC010 20/17 A3009
KCNW 241355Z 17006KT 10SM OVC012 18/18 A3008
KCNW 241255Z 17006KT 07SM BKN008 18/18 A3007
KCNW 241155Z 16009KT 07SM OVC010 18/16 A3005